Terminal Aerodrome Forecast
Issued by NWS Spokane, WA

Home | Current Version | Previous Version | Text Only | Print | Product List | Glossary On
Versions: 1 2 3 4 5 6 7 8 9 10 11 12 13
000
FTUS46 KOTX 290522
TAFLWS
TAF
KLWS 290522Z 2906/3006 VRB04KT P6SM SCT150 BKN200
     FM291100 13002KT P6SM BKN080 BKN120 BKN200
     FM291800 31009G14KT P6SM SCT070 BKN090
     FM300300 25009KT P6SM SCT050 BKN090=

USA.gov is the U.S. government's official web portal to all federal, state and local government web resources and services.